sensor_id;sensor_type;location;lat;lon;timestamp;P1;durP1;ratioP1;P2;durP2;ratioP2
51174;SDS011;37240;50.104;20.010;2022-07-10T00:04:32;12.05;;;4.45;;
51174;SDS011;37240;50.104;20.010;2022-07-10T00:09:33;11.13;;;4.70;;
51174;SDS011;37240;50.104;20.010;2022-07-10T00:14:33;6.40;;;4.25;;
51174;SDS011;37240;50.104;20.010;2022-07-10T00:19:34;5.47;;;3.75;;
51174;SDS011;37240;50.104;20.010;2022-07-10T00:24:34;9.73;;;5.07;;
51174;SDS011;37240;50.104;20.010;2022-07-10T00:29:35;11.07;;;4.85;;
51174;SDS011;37240;50.104;20.010;2022-07-10T00:34:35;9.80;;;4.25;;
51174;SDS011;37240;50.104;20.010;2022-07-10T00:39:36;6.45;;;4.45;;
51174;SDS011;37240;50.104;20.010;2022-07-10T00:44:37;12.50;;;5.00;;
51174;SDS011;37240;50.104;20.010;2022-07-10T00:49:38;4.78;;;4.15;;
51174;SDS011;37240;50.104;20.010;2022-07-10T00:54:40;8.48;;;4.53;;
51174;SDS011;37240;50.104;20.010;2022-07-10T00:59:43;5.72;;;4.38;;
51174;SDS011;37240;50.104;20.010;2022-07-10T01:04:45;15.85;;;4.95;;
51174;SDS011;37240;50.104;20.010;2022-07-10T01:09:46;7.80;;;4.45;;
51174;SDS011;37240;50.104;20.010;2022-07-10T01:14:46;11.55;;;4.68;;
51174;SDS011;37240;50.104;20.010;2022-07-10T01:19:47;8.18;;;4.43;;
51174;SDS011;37240;50.104;20.010;2022-07-10T01:24:47;9.18;;;5.10;;
51174;SDS011;37240;50.104;20.010;2022-07-10T01:29:48;13.65;;;4.53;;
51174;SDS011;37240;50.104;20.010;2022-07-10T01:34:49;10.80;;;4.68;;
51174;SDS011;37240;50.104;20.010;2022-07-10T01:39:50;9.13;;;4.90;;
51174;SDS011;37240;50.104;20.010;2022-07-10T01:44:50;14.75;;;4.97;;
51174;SDS011;37240;50.104;20.010;2022-07-10T01:49:51;9.95;;;5.20;;
51174;SDS011;37240;50.104;20.010;2022-07-10T01:54:52;10.55;;;6.15;;
51174;SDS011;37240;50.104;20.010;2022-07-10T01:59:52;9.25;;;6.18;;
51174;SDS011;37240;50.104;20.010;2022-07-10T02:04:53;14.10;;;6.97;;
51174;SDS011;37240;50.104;20.010;2022-07-10T02:09:54;8.52;;;6.15;;
51174;SDS011;37240;50.104;20.010;2022-07-10T02:14:54;8.45;;;6.03;;
51174;SDS011;37240;50.104;20.010;2022-07-10T02:19:55;11.13;;;6.15;;
51174;SDS011;37240;50.104;20.010;2022-07-10T02:24:55;15.20;;;6.97;;
51174;SDS011;37240;50.104;20.010;2022-07-10T02:29:55;9.80;;;6.30;;
51174;SDS011;37240;50.104;20.010;2022-07-10T02:34:56;12.90;;;7.40;;
51174;SDS011;37240;50.104;20.010;2022-07-10T02:39:56;16.88;;;6.45;;
51174;SDS011;37240;50.104;20.010;2022-07-10T02:44:57;7.57;;;5.60;;
51174;SDS011;37240;50.104;20.010;2022-07-10T02:49:57;13.10;;;5.80;;
51174;SDS011;37240;50.104;20.010;2022-07-10T02:54:58;15.25;;;7.28;;
51174;SDS011;37240;50.104;20.010;2022-07-10T02:59:58;15.75;;;7.05;;
51174;SDS011;37240;50.104;20.010;2022-07-10T03:04:59;7.43;;;6.57;;
51174;SDS011;37240;50.104;20.010;2022-07-10T03:09:59;21.17;;;7.43;;
51174;SDS011;37240;50.104;20.010;2022-07-10T03:15:00;18.45;;;7.18;;
51174;SDS011;37240;50.104;20.010;2022-07-10T03:20:01;14.23;;;8.25;;
51174;SDS011;37240;50.104;20.010;2022-07-10T03:25:01;10.85;;;7.18;;
51174;SDS011;37240;50.104;20.010;2022-07-10T03:30:02;12.93;;;7.55;;
51174;SDS011;37240;50.104;20.010;2022-07-10T03:35:04;19.65;;;7.85;;
51174;SDS011;37240;50.104;20.010;2022-07-10T03:40:05;11.38;;;7.85;;
51174;SDS011;37240;50.104;20.010;2022-07-10T03:45:05;11.13;;;7.40;;
51174;SDS011;37240;50.104;20.010;2022-07-10T03:50:06;19.73;;;8.70;;
51174;SDS011;37240;50.104;20.010;2022-07-10T03:55:07;11.77;;;8.00;;
51174;SDS011;37240;50.104;20.010;2022-07-10T04:00:08;14.50;;;7.70;;
51174;SDS011;37240;50.104;20.010;2022-07-10T04:05:10;15.20;;;9.38;;
51174;SDS011;37240;50.104;20.010;2022-07-10T04:10:10;33.40;;;9.02;;
51174;SDS011;37240;50.104;20.010;2022-07-10T04:15:11;16.80;;;8.85;;
51174;SDS011;37240;50.104;20.010;2022-07-10T04:20:11;18.90;;;8.27;;
51174;SDS011;37240;50.104;20.010;2022-07-10T04:25:12;12.07;;;8.45;;
51174;SDS011;37240;50.104;20.010;2022-07-10T04:30:13;8.68;;;7.57;;
51174;SDS011;37240;50.104;20.010;2022-07-10T04:35:13;9.73;;;6.47;;
51174;SDS011;37240;50.104;20.010;2022-07-10T04:40:14;15.18;;;7.13;;
51174;SDS011;37240;50.104;20.010;2022-07-10T04:45:15;9.27;;;6.82;;
51174;SDS011;37240;50.104;20.010;2022-07-10T04:50:15;12.85;;;7.80;;
51174;SDS011;37240;50.104;20.010;2022-07-10T04:55:16;7.22;;;5.95;;
51174;SDS011;37240;50.104;20.010;2022-07-10T05:00:16;22.45;;;8.35;;
51174;SDS011;37240;50.104;20.010;2022-07-10T05:05:17;12.50;;;7.60;;
51174;SDS011;37240;50.104;20.010;2022-07-10T05:10:17;11.52;;;6.70;;
51174;SDS011;37240;50.104;20.010;2022-07-10T05:15:18;17.73;;;6.82;;
51174;SDS011;37240;50.104;20.010;2022-07-10T05:20:18;11.13;;;6.80;;
51174;SDS011;37240;50.104;20.010;2022-07-10T05:25:19;15.90;;;6.85;;
51174;SDS011;37240;50.104;20.010;2022-07-10T05:30:20;11.13;;;5.97;;
51174;SDS011;37240;50.104;20.010;2022-07-10T05:35:20;9.60;;;6.95;;
51174;SDS011;37240;50.104;20.010;2022-07-10T05:40:21;10.90;;;5.75;;
51174;SDS011;37240;50.104;20.010;2022-07-10T05:45:21;11.55;;;5.68;;
51174;SDS011;37240;50.104;20.010;2022-07-10T05:50:22;6.93;;;5.15;;
51174;SDS011;37240;50.104;20.010;2022-07-10T05:55:22;7.72;;;4.63;;
51174;SDS011;37240;50.104;20.010;2022-07-10T06:00:23;4.50;;;4.10;;
51174;SDS011;37240;50.104;20.010;2022-07-10T06:05:23;6.25;;;3.58;;
51174;SDS011;37240;50.104;20.010;2022-07-10T06:10:24;6.47;;;3.63;;
51174;SDS011;37240;50.104;20.010;2022-07-10T06:15:24;4.40;;;2.70;;
51174;SDS011;37240;50.104;20.010;2022-07-10T06:20:25;3.40;;;2.83;;
51174;SDS011;37240;50.104;20.010;2022-07-10T06:25:26;2.72;;;2.63;;
51174;SDS011;37240;50.104;20.010;2022-07-10T06:30:26;1.95;;;1.83;;
51174;SDS011;37240;50.104;20.010;2022-07-10T06:35:27;3.58;;;2.10;;
51174;SDS011;37240;50.104;20.010;2022-07-10T06:40:30;1.60;;;1.55;;
51174;SDS011;37240;50.104;20.010;2022-07-10T06:45:36;3.47;;;3.15;;
51174;SDS011;37240;50.104;20.010;2022-07-10T06:50:37;12.85;;;6.60;;
51174;SDS011;37240;50.104;20.010;2022-07-10T06:55:38;2.78;;;1.45;;
51174;SDS011;37240;50.104;20.010;2022-07-10T07:00:38;1.48;;;1.10;;
51174;SDS011;37240;50.104;20.010;2022-07-10T07:05:39;0.73;;;0.73;;
51174;SDS011;37240;50.104;20.010;2022-07-10T07:10:39;1.02;;;0.98;;
51174;SDS011;37240;50.104;20.010;2022-07-10T07:15:40;2.80;;;0.90;;
51174;SDS011;37240;50.104;20.010;2022-07-10T07:20:40;0.50;;;0.50;;
51174;SDS011;37240;50.104;20.010;2022-07-10T07:25:41;0.80;;;0.80;;
51174;SDS011;37240;50.104;20.010;2022-07-10T07:30:42;4.43;;;0.70;;
51174;SDS011;37240;50.104;20.010;2022-07-10T07:35:43;0.70;;;0.70;;
51174;SDS011;37240;50.104;20.010;2022-07-10T07:40:44;3.00;;;0.90;;
51174;SDS011;37240;50.104;20.010;2022-07-10T07:45:44;1.88;;;0.80;;
51174;SDS011;37240;50.104;20.010;2022-07-10T07:50:45;7.22;;;1.75;;
51174;SDS011;37240;50.104;20.010;2022-07-10T07:55:45;1.45;;;1.33;;
51174;SDS011;37240;50.104;20.010;2022-07-10T08:00:46;3.33;;;1.20;;
51174;SDS011;37240;50.104;20.010;2022-07-10T08:05:46;5.65;;;2.00;;
51174;SDS011;37240;50.104;20.010;2022-07-10T08:10:47;4.63;;;1.20;;
51174;SDS011;37240;50.104;20.010;2022-07-10T08:15:47;3.72;;;1.60;;
51174;SDS011;37240;50.104;20.010;2022-07-10T08:20:48;9.70;;;1.38;;
51174;SDS011;37240;50.104;20.010;2022-07-10T08:25:50;4.70;;;1.10;;
51174;SDS011;37240;50.104;20.010;2022-07-10T08:30:50;3.58;;;1.00;;
51174;SDS011;37240;50.104;20.010;2022-07-10T08:35:51;2.05;;;0.80;;
51174;SDS011;37240;50.104;20.010;2022-07-10T08:40:51;2.95;;;0.90;;
51174;SDS011;37240;50.104;20.010;2022-07-10T08:45:54;4.45;;;0.63;;
51174;SDS011;37240;50.104;20.010;2022-07-10T08:50:55;6.38;;;1.45;;
51174;SDS011;37240;50.104;20.010;2022-07-10T08:56:02;16.92;;;2.88;;
51174;SDS011;37240;50.104;20.010;2022-07-10T09:01:03;5.90;;;0.88;;
51174;SDS011;37240;50.104;20.010;2022-07-10T09:06:04;1.55;;;0.80;;
51174;SDS011;37240;50.104;20.010;2022-07-10T09:11:18;4.07;;;0.95;;
51174;SDS011;37240;50.104;20.010;2022-07-10T09:16:26;4.60;;;0.90;;
51174;SDS011;37240;50.104;20.010;2022-07-10T09:21:32;2.55;;;0.73;;
51174;SDS011;37240;50.104;20.010;2022-07-10T09:26:33;12.63;;;1.08;;
51174;SDS011;37240;50.104;20.010;2022-07-10T09:31:48;4.03;;;1.40;;
51174;SDS011;37240;50.104;20.010;2022-07-10T09:36:52;3.38;;;1.23;;
51174;SDS011;37240;50.104;20.010;2022-07-10T09:41:53;2.25;;;0.98;;
51174;SDS011;37240;50.104;20.010;2022-07-10T09:46:53;2.35;;;1.10;;
51174;SDS011;37240;50.104;20.010;2022-07-10T09:51:54;5.47;;;1.05;;
51174;SDS011;37240;50.104;20.010;2022-07-10T09:56:54;3.70;;;1.08;;
51174;SDS011;37240;50.104;20.010;2022-07-10T10:01:56;7.40;;;1.13;;
51174;SDS011;37240;50.104;20.010;2022-07-10T10:07:00;1.95;;;0.90;;
51174;SDS011;37240;50.104;20.010;2022-07-10T10:12:04;8.13;;;0.80;;
51174;SDS011;37240;50.104;20.010;2022-07-10T10:17:11;1.42;;;0.50;;
51174;SDS011;37240;50.104;20.010;2022-07-10T10:22:12;5.13;;;1.10;;
51174;SDS011;37240;50.104;20.010;2022-07-10T10:27:14;2.55;;;1.00;;
51174;SDS011;37240;50.104;20.010;2022-07-10T10:32:15;6.57;;;0.95;;
51174;SDS011;37240;50.104;20.010;2022-07-10T10:42:41;1.80;;;1.15;;
51174;SDS011;37240;50.104;20.010;2022-07-10T10:52:59;1.77;;;0.73;;
51174;SDS011;37240;50.104;20.010;2022-07-10T10:58:16;2.15;;;0.70;;
51174;SDS011;37240;50.104;20.010;2022-07-10T11:03:20;3.10;;;0.70;;
51174;SDS011;37240;50.104;20.010;2022-07-10T11:08:35;0.73;;;0.50;;
51174;SDS011;37240;50.104;20.010;2022-07-10T11:13:42;3.25;;;0.77;;
51174;SDS011;37240;50.104;20.010;2022-07-10T11:18:45;1.65;;;0.73;;
51174;SDS011;37240;50.104;20.010;2022-07-10T11:24:10;2.65;;;1.17;;
51174;SDS011;37240;50.104;20.010;2022-07-10T11:29:17;2.53;;;0.63;;
51174;SDS011;37240;50.104;20.010;2022-07-10T11:34:18;1.98;;;0.70;;
51174;SDS011;37240;50.104;20.010;2022-07-10T11:39:19;2.83;;;0.47;;
51174;SDS011;37240;50.104;20.010;2022-07-10T11:44:19;5.53;;;1.70;;
51174;SDS011;37240;50.104;20.010;2022-07-10T11:49:20;1.38;;;0.70;;
51174;SDS011;37240;50.104;20.010;2022-07-10T11:54:20;0.77;;;0.60;;
51174;SDS011;37240;50.104;20.010;2022-07-10T11:59:24;4.22;;;0.98;;
51174;SDS011;37240;50.104;20.010;2022-07-10T12:04:28;2.65;;;0.90;;
51174;SDS011;37240;50.104;20.010;2022-07-10T12:09:29;4.85;;;1.08;;
51174;SDS011;37240;50.104;20.010;2022-07-10T12:14:30;5.13;;;0.73;;
51174;SDS011;37240;50.104;20.010;2022-07-10T12:19:36;1.65;;;0.40;;
51174;SDS011;37240;50.104;20.010;2022-07-10T12:24:38;0.40;;;0.40;;
51174;SDS011;37240;50.104;20.010;2022-07-10T12:29:38;0.52;;;0.43;;
51174;SDS011;37240;50.104;20.010;2022-07-10T12:34:40;2.65;;;0.90;;
51174;SDS011;37240;50.104;20.010;2022-07-10T12:39:48;2.70;;;0.63;;
51174;SDS011;37240;50.104;20.010;2022-07-10T12:44:50;3.00;;;0.75;;
51174;SDS011;37240;50.104;20.010;2022-07-10T12:49:57;1.38;;;0.73;;
51174;SDS011;37240;50.104;20.010;2022-07-10T13:00:13;0.85;;;0.80;;
51174;SDS011;37240;50.104;20.010;2022-07-10T13:10:45;1.42;;;0.70;;
51174;SDS011;37240;50.104;20.010;2022-07-10T13:15:48;3.25;;;0.98;;
51174;SDS011;37240;50.104;20.010;2022-07-10T13:20:50;1.55;;;0.80;;
51174;SDS011;37240;50.104;20.010;2022-07-10T13:25:52;0.63;;;0.63;;
51174;SDS011;37240;50.104;20.010;2022-07-10T13:30:53;0.57;;;0.57;;
51174;SDS011;37240;50.104;20.010;2022-07-10T13:35:53;2.88;;;0.90;;
51174;SDS011;37240;50.104;20.010;2022-07-10T13:40:54;7.43;;;0.77;;
51174;SDS011;37240;50.104;20.010;2022-07-10T13:45:58;1.83;;;0.63;;
51174;SDS011;37240;50.104;20.010;2022-07-10T13:50:59;2.90;;;1.03;;
51174;SDS011;37240;50.104;20.010;2022-07-10T13:56:00;1.67;;;0.82;;
51174;SDS011;37240;50.104;20.010;2022-07-10T14:01:00;6.93;;;0.98;;
51174;SDS011;37240;50.104;20.010;2022-07-10T14:06:01;4.05;;;0.85;;
51174;SDS011;37240;50.104;20.010;2022-07-10T14:11:01;7.05;;;0.73;;
51174;SDS011;37240;50.104;20.010;2022-07-10T14:16:02;0.77;;;0.63;;
51174;SDS011;37240;50.104;20.010;2022-07-10T14:21:04;4.55;;;1.13;;
51174;SDS011;37240;50.104;20.010;2022-07-10T14:26:05;0.45;;;0.38;;
51174;SDS011;37240;50.104;20.010;2022-07-10T14:31:06;2.53;;;0.85;;
51174;SDS011;37240;50.104;20.010;2022-07-10T14:36:07;2.40;;;0.40;;
51174;SDS011;37240;50.104;20.010;2022-07-10T14:41:07;1.08;;;0.47;;
51174;SDS011;37240;50.104;20.010;2022-07-10T14:46:08;0.28;;;0.28;;
51174;SDS011;37240;50.104;20.010;2022-07-10T14:51:08;3.60;;;0.30;;
51174;SDS011;37240;50.104;20.010;2022-07-10T14:56:09;0.20;;;0.20;;
51174;SDS011;37240;50.104;20.010;2022-07-10T15:01:11;0.57;;;0.20;;
51174;SDS011;37240;50.104;20.010;2022-07-10T15:06:12;2.70;;;0.75;;
51174;SDS011;37240;50.104;20.010;2022-07-10T15:11:12;0.35;;;0.20;;
51174;SDS011;37240;50.104;20.010;2022-07-10T15:16:13;2.40;;;0.60;;
51174;SDS011;37240;50.104;20.010;2022-07-10T15:21:13;1.13;;;0.47;;
51174;SDS011;37240;50.104;20.010;2022-07-10T15:26:14;1.88;;;0.57;;
51174;SDS011;37240;50.104;20.010;2022-07-10T15:31:14;2.33;;;0.90;;
51174;SDS011;37240;50.104;20.010;2022-07-10T15:36:15;0.98;;;0.25;;
51174;SDS011;37240;50.104;20.010;2022-07-10T15:41:15;2.58;;;0.50;;
51174;SDS011;37240;50.104;20.010;2022-07-10T15:46:16;3.22;;;1.15;;
51174;SDS011;37240;50.104;20.010;2022-07-10T15:51:16;4.22;;;0.85;;
51174;SDS011;37240;50.104;20.010;2022-07-10T15:56:17;3.28;;;0.60;;
51174;SDS011;37240;50.104;20.010;2022-07-10T16:01:17;3.15;;;0.40;;
51174;SDS011;37240;50.104;20.010;2022-07-10T16:06:18;0.82;;;0.45;;
51174;SDS011;37240;50.104;20.010;2022-07-10T16:11:18;0.38;;;0.30;;
51174;SDS011;37240;50.104;20.010;2022-07-10T16:16:19;3.05;;;1.05;;
51174;SDS011;37240;50.104;20.010;2022-07-10T16:21:20;2.42;;;0.43;;
51174;SDS011;37240;50.104;20.010;2022-07-10T16:26:20;1.50;;;0.57;;
51174;SDS011;37240;50.104;20.010;2022-07-10T16:31:21;2.97;;;0.65;;
51174;SDS011;37240;50.104;20.010;2022-07-10T16:36:21;19.85;;;12.25;;
51174;SDS011;37240;50.104;20.010;2022-07-10T16:41:22;6.88;;;3.42;;
51174;SDS011;37240;50.104;20.010;2022-07-10T16:46:23;3.55;;;1.67;;
51174;SDS011;37240;50.104;20.010;2022-07-10T16:51:23;2.53;;;0.95;;
51174;SDS011;37240;50.104;20.010;2022-07-10T16:56:24;1.92;;;0.98;;
51174;SDS011;37240;50.104;20.010;2022-07-10T17:01:24;4.38;;;1.02;;
51174;SDS011;37240;50.104;20.010;2022-07-10T17:06:25;2.08;;;0.82;;
51174;SDS011;37240;50.104;20.010;2022-07-10T17:11:25;2.05;;;0.63;;
51174;SDS011;37240;50.104;20.010;2022-07-10T17:16:26;1.30;;;0.47;;
51174;SDS011;37240;50.104;20.010;2022-07-10T17:21:26;1.85;;;0.60;;
51174;SDS011;37240;50.104;20.010;2022-07-10T17:26:27;1.40;;;0.50;;
51174;SDS011;37240;50.104;20.010;2022-07-10T17:31:28;1.15;;;1.05;;
51174;SDS011;37240;50.104;20.010;2022-07-10T17:36:28;5.20;;;1.33;;
51174;SDS011;37240;50.104;20.010;2022-07-10T17:41:29;6.78;;;1.05;;
51174;SDS011;37240;50.104;20.010;2022-07-10T17:46:29;1.38;;;0.88;;
51174;SDS011;37240;50.104;20.010;2022-07-10T17:51:30;2.05;;;0.50;;
51174;SDS011;37240;50.104;20.010;2022-07-10T17:56:31;0.70;;;0.68;;
51174;SDS011;37240;50.104;20.010;2022-07-10T18:01:31;4.07;;;0.90;;
51174;SDS011;37240;50.104;20.010;2022-07-10T18:06:32;4.43;;;0.77;;
51174;SDS011;37240;50.104;20.010;2022-07-10T18:11:33;3.70;;;0.93;;
51174;SDS011;37240;50.104;20.010;2022-07-10T18:16:33;1.60;;;1.35;;
51174;SDS011;37240;50.104;20.010;2022-07-10T18:21:34;1.48;;;0.80;;
51174;SDS011;37240;50.104;20.010;2022-07-10T18:26:34;1.70;;;0.80;;
51174;SDS011;37240;50.104;20.010;2022-07-10T18:31:35;1.25;;;0.55;;
51174;SDS011;37240;50.104;20.010;2022-07-10T18:36:35;0.70;;;0.47;;
51174;SDS011;37240;50.104;20.010;2022-07-10T18:41:36;2.00;;;0.90;;
51174;SDS011;37240;50.104;20.010;2022-07-10T18:46:37;3.45;;;1.25;;
51174;SDS011;37240;50.104;20.010;2022-07-10T18:51:38;3.00;;;1.42;;
51174;SDS011;37240;50.104;20.010;2022-07-10T18:56:38;1.13;;;1.13;;
51174;SDS011;37240;50.104;20.010;2022-07-10T19:01:39;0.93;;;0.77;;
51174;SDS011;37240;50.104;20.010;2022-07-10T19:06:39;1.15;;;0.60;;
51174;SDS011;37240;50.104;20.010;2022-07-10T19:11:40;3.17;;;1.00;;
51174;SDS011;37240;50.104;20.010;2022-07-10T19:16:40;3.90;;;0.70;;
51174;SDS011;37240;50.104;20.010;2022-07-10T19:21:41;2.00;;;0.98;;
51174;SDS011;37240;50.104;20.010;2022-07-10T19:26:44;2.92;;;1.48;;
51174;SDS011;37240;50.104;20.010;2022-07-10T19:31:45;2.60;;;1.50;;
51174;SDS011;37240;50.104;20.010;2022-07-10T19:36:45;7.60;;;1.30;;
51174;SDS011;37240;50.104;20.010;2022-07-10T19:41:46;0.52;;;0.52;;
51174;SDS011;37240;50.104;20.010;2022-07-10T19:46:47;2.53;;;1.23;;
51174;SDS011;37240;50.104;20.010;2022-07-10T19:51:47;1.60;;;1.15;;
51174;SDS011;37240;50.104;20.010;2022-07-10T19:56:48;3.83;;;1.17;;
51174;SDS011;37240;50.104;20.010;2022-07-10T20:01:49;2.35;;;1.02;;
51174;SDS011;37240;50.104;20.010;2022-07-10T20:06:49;2.35;;;0.90;;
51174;SDS011;37240;50.104;20.010;2022-07-10T20:11:50;2.30;;;0.93;;
51174;SDS011;37240;50.104;20.010;2022-07-10T20:16:50;2.80;;;1.00;;
51174;SDS011;37240;50.104;20.010;2022-07-10T20:21:51;5.07;;;1.20;;
51174;SDS011;37240;50.104;20.010;2022-07-10T20:26:52;0.98;;;0.95;;
51174;SDS011;37240;50.104;20.010;2022-07-10T20:31:53;2.17;;;0.77;;
51174;SDS011;37240;50.104;20.010;2022-07-10T20:36:53;1.17;;;0.93;;
51174;SDS011;37240;50.104;20.010;2022-07-10T20:41:54;4.50;;;1.30;;
51174;SDS011;37240;50.104;20.010;2022-07-10T20:46:54;2.67;;;1.55;;
51174;SDS011;37240;50.104;20.010;2022-07-10T20:51:55;9.57;;;1.30;;
51174;SDS011;37240;50.104;20.010;2022-07-10T20:56:55;2.92;;;1.63;;
51174;SDS011;37240;50.104;20.010;2022-07-10T21:01:56;4.15;;;1.40;;
51174;SDS011;37240;50.104;20.010;2022-07-10T21:06:56;0.88;;;0.88;;
51174;SDS011;37240;50.104;20.010;2022-07-10T21:11:57;3.72;;;1.20;;
51174;SDS011;37240;50.104;20.010;2022-07-10T21:16:57;2.38;;;0.93;;
51174;SDS011;37240;50.104;20.010;2022-07-10T21:21:58;2.78;;;1.20;;
51174;SDS011;37240;50.104;20.010;2022-07-10T21:26:58;5.57;;;0.90;;
51174;SDS011;37240;50.104;20.010;2022-07-10T21:31:59;2.97;;;0.90;;
51174;SDS011;37240;50.104;20.010;2022-07-10T21:36:59;1.65;;;0.95;;
51174;SDS011;37240;50.104;20.010;2022-07-10T21:42:00;5.40;;;1.38;;
51174;SDS011;37240;50.104;20.010;2022-07-10T21:47:01;3.08;;;1.13;;
51174;SDS011;37240;50.104;20.010;2022-07-10T21:52:01;3.00;;;1.30;;
51174;SDS011;37240;50.104;20.010;2022-07-10T21:57:02;5.05;;;1.23;;
51174;SDS011;37240;50.104;20.010;2022-07-10T22:02:03;2.45;;;1.02;;
51174;SDS011;37240;50.104;20.010;2022-07-10T22:07:03;2.00;;;1.15;;
51174;SDS011;37240;50.104;20.010;2022-07-10T22:12:04;2.40;;;1.15;;
51174;SDS011;37240;50.104;20.010;2022-07-10T22:17:05;3.40;;;1.30;;
51174;SDS011;37240;50.104;20.010;2022-07-10T22:22:06;4.35;;;1.92;;
51174;SDS011;37240;50.104;20.010;2022-07-10T22:27:07;3.90;;;1.30;;
51174;SDS011;37240;50.104;20.010;2022-07-10T22:32:07;1.02;;;0.90;;
51174;SDS011;37240;50.104;20.010;2022-07-10T22:37:08;1.60;;;1.20;;
51174;SDS011;37240;50.104;20.010;2022-07-10T22:42:08;2.75;;;0.82;;
51174;SDS011;37240;50.104;20.010;2022-07-10T22:47:09;3.42;;;1.48;;
51174;SDS011;37240;50.104;20.010;2022-07-10T22:52:09;3.30;;;1.25;;
51174;SDS011;37240;50.104;20.010;2022-07-10T22:57:10;3.67;;;1.27;;
51174;SDS011;37240;50.104;20.010;2022-07-10T23:02:10;1.17;;;1.05;;
51174;SDS011;37240;50.104;20.010;2022-07-10T23:07:11;2.35;;;1.13;;
51174;SDS011;37240;50.104;20.010;2022-07-10T23:12:12;5.68;;;1.80;;
51174;SDS011;37240;50.104;20.010;2022-07-10T23:17:12;6.13;;;1.50;;
51174;SDS011;37240;50.104;20.010;2022-07-10T23:22:13;2.55;;;1.50;;
51174;SDS011;37240;50.104;20.010;2022-07-10T23:27:13;3.97;;;1.48;;
51174;SDS011;37240;50.104;20.010;2022-07-10T23:32:14;6.75;;;2.00;;
51174;SDS011;37240;50.104;20.010;2022-07-10T23:37:14;6.45;;;1.45;;
51174;SDS011;37240;50.104;20.010;2022-07-10T23:42:16;1.83;;;1.70;;
51174;SDS011;37240;50.104;20.010;2022-07-10T23:47:16;4.13;;;1.80;;
51174;SDS011;37240;50.104;20.010;2022-07-10T23:52:17;2.67;;;1.20;;
51174;SDS011;37240;50.104;20.010;2022-07-10T23:57:19;3.38;;;1.52;;
